sensor_id;sensor_type;location;lat;lon;timestamp;pressure;altitude;pressure_sealevel;temperature;humidity
16094;BME280;8151;47.824;12.092;2023-05-24T00:00:12;96399.25;;;16.39;85.10
16094;BME280;8151;47.824;12.092;2023-05-24T00:02:41;96401.28;;;16.37;84.95
16094;BME280;8151;47.824;12.092;2023-05-24T00:05:10;96393.47;;;16.42;84.92
16094;BME280;8151;47.824;12.092;2023-05-24T00:07:41;96397.19;;;16.54;84.47
16094;BME280;8151;47.824;12.092;2023-05-24T00:10:21;96389.78;;;16.63;84.38
16094;BME280;8151;47.824;12.092;2023-05-24T00:12:49;96389.56;;;16.71;84.03
16094;BME280;8151;47.824;12.092;2023-05-24T00:15:17;96388.53;;;16.79;83.78
16094;BME280;8151;47.824;12.092;2023-05-24T00:17:46;96381.56;;;16.84;83.49
16094;BME280;8151;47.824;12.092;2023-05-24T00:20:14;96388.59;;;16.85;83.24
16094;BME280;8151;47.824;12.092;2023-05-24T00:22:43;96389.59;;;16.84;83.38
16094;BME280;8151;47.824;12.092;2023-05-24T00:25:12;96379.91;;;16.77;83.38
16094;BME280;8151;47.824;12.092;2023-05-24T00:27:42;96384.63;;;16.74;83.70
16094;BME280;8151;47.824;12.092;2023-05-24T00:30:11;96383.00;;;16.73;83.91
16094;BME280;8151;47.824;12.092;2023-05-24T00:32:39;96391.25;;;16.65;83.73
16094;BME280;8151;47.824;12.092;2023-05-24T00:35:08;96382.38;;;16.65;83.80
16094;BME280;8151;47.824;12.092;2023-05-24T00:37:37;96390.41;;;16.65;83.69
16094;BME280;8151;47.824;12.092;2023-05-24T00:40:07;96377.66;;;16.60;83.68
16094;BME280;8151;47.824;12.092;2023-05-24T00:42:36;96382.63;;;16.50;83.92
16094;BME280;8151;47.824;12.092;2023-05-24T00:45:16;96382.38;;;16.45;84.00
16094;BME280;8151;47.824;12.092;2023-05-24T00:47:45;96380.97;;;16.42;84.38
16094;BME280;8151;47.824;12.092;2023-05-24T00:50:14;96377.06;;;16.38;84.10
16094;BME280;8151;47.824;12.092;2023-05-24T00:52:46;96381.56;;;16.38;84.26
16094;BME280;8151;47.824;12.092;2023-05-24T00:55:17;96385.47;;;16.42;83.96
16094;BME280;8151;47.824;12.092;2023-05-24T00:57:45;96377.25;;;16.43;83.90
16094;BME280;8151;47.824;12.092;2023-05-24T01:00:15;96374.59;;;16.37;83.95
16094;BME280;8151;47.824;12.092;2023-05-24T01:02:52;96377.66;;;16.33;83.83
16094;BME280;8151;47.824;12.092;2023-05-24T01:05:21;96372.94;;;16.29;83.87
16094;BME280;8151;47.824;12.092;2023-05-24T01:07:55;96377.44;;;16.28;83.69
16094;BME280;8151;47.824;12.092;2023-05-24T01:10:31;96370.47;;;16.27;83.63
16094;BME280;8151;47.824;12.092;2023-05-24T01:13:07;96367.38;;;16.24;83.41
16094;BME280;8151;47.824;12.092;2023-05-24T01:15:49;96374.16;;;16.20;83.50
16094;BME280;8151;47.824;12.092;2023-05-24T01:18:23;96371.25;;;16.14;83.69
16094;BME280;8151;47.824;12.092;2023-05-24T01:21:15;96366.75;;;16.15;83.56
16094;BME280;8151;47.824;12.092;2023-05-24T01:23:46;96371.88;;;16.17;83.34
16094;BME280;8151;47.824;12.092;2023-05-24T01:26:30;96369.84;;;16.25;83.26
16094;BME280;8151;47.824;12.092;2023-05-24T01:29:02;96366.97;;;16.33;83.01
16094;BME280;8151;47.824;12.092;2023-05-24T01:31:32;96369.88;;;16.39;82.98
16094;BME280;8151;47.824;12.092;2023-05-24T01:34:01;96374.78;;;16.42;82.75
16094;BME280;8151;47.824;12.092;2023-05-24T01:36:29;96371.91;;;16.43;82.76
16094;BME280;8151;47.824;12.092;2023-05-24T01:38:57;96370.28;;;16.42;82.88
16094;BME280;8151;47.824;12.092;2023-05-24T01:41:35;96372.09;;;16.42;82.56
16094;BME280;8151;47.824;12.092;2023-05-24T01:44:13;96365.75;;;16.43;82.52
16094;BME280;8151;47.824;12.092;2023-05-24T01:46:46;96368.63;;;16.41;82.45
16094;BME280;8151;47.824;12.092;2023-05-24T01:49:19;96370.25;;;16.36;82.28
16094;BME280;8151;47.824;12.092;2023-05-24T01:51:53;96367.41;;;16.30;82.63
16094;BME280;8151;47.824;12.092;2023-05-24T01:54:25;96369.03;;;16.25;82.63
16094;BME280;8151;47.824;12.092;2023-05-24T01:56:56;96373.75;;;16.29;82.49
16094;BME280;8151;47.824;12.092;2023-05-24T01:59:28;96376.63;;;16.34;82.33
16094;BME280;8151;47.824;12.092;2023-05-24T02:01:57;96372.31;;;16.33;82.07
16094;BME280;8151;47.824;12.092;2023-05-24T02:04:26;96369.63;;;16.33;82.18
16094;BME280;8151;47.824;12.092;2023-05-24T02:06:54;96372.13;;;16.35;81.87
16094;BME280;8151;47.824;12.092;2023-05-24T02:09:22;96374.97;;;16.33;81.84
16094;BME280;8151;47.824;12.092;2023-05-24T02:11:51;96371.72;;;16.25;82.01
16094;BME280;8151;47.824;12.092;2023-05-24T02:14:20;96379.06;;;16.16;81.95
16094;BME280;8151;47.824;12.092;2023-05-24T02:16:51;96375.78;;;16.07;82.59
16094;BME280;8151;47.824;12.092;2023-05-24T02:19:25;96380.09;;;16.08;82.64
16094;BME280;8151;47.824;12.092;2023-05-24T02:21:53;96373.31;;;16.12;82.37
16094;BME280;8151;47.824;12.092;2023-05-24T02:24:22;96376.81;;;16.13;82.18
16094;BME280;8151;47.824;12.092;2023-05-24T02:26:50;96381.94;;;16.14;82.24
16094;BME280;8151;47.824;12.092;2023-05-24T02:29:18;96379.47;;;16.06;82.30
16094;BME280;8151;47.824;12.092;2023-05-24T02:31:47;96375.97;;;16.06;82.44
16094;BME280;8151;47.824;12.092;2023-05-24T02:34:22;96365.31;;;16.12;82.38
16094;BME280;8151;47.824;12.092;2023-05-24T02:36:51;96364.69;;;16.10;82.34
16094;BME280;8151;47.824;12.092;2023-05-24T02:39:22;96367.34;;;16.04;81.97
16094;BME280;8151;47.824;12.092;2023-05-24T02:41:50;96365.28;;;15.99;82.27
16094;BME280;8151;47.824;12.092;2023-05-24T02:44:18;96368.16;;;15.98;82.34
16094;BME280;8151;47.824;12.092;2023-05-24T02:46:47;96364.03;;;15.95;82.30
16094;BME280;8151;47.824;12.092;2023-05-24T02:49:15;96368.38;;;15.96;82.23
16094;BME280;8151;47.824;12.092;2023-05-24T02:51:45;96367.75;;;15.94;82.33
16094;BME280;8151;47.824;12.092;2023-05-24T02:54:14;96373.66;;;15.89;82.33
16094;BME280;8151;47.824;12.092;2023-05-24T02:56:43;96377.16;;;15.83;82.31
16094;BME280;8151;47.824;12.092;2023-05-24T02:59:12;96368.09;;;15.78;82.46
16094;BME280;8151;47.824;12.092;2023-05-24T03:01:43;96373.25;;;15.79;82.51
16094;BME280;8151;47.824;12.092;2023-05-24T03:04:12;96374.41;;;15.70;82.35
16094;BME280;8151;47.824;12.092;2023-05-24T03:06:40;96370.72;;;15.71;82.43
16094;BME280;8151;47.824;12.092;2023-05-24T03:09:10;96369.34;;;15.75;82.55
16094;BME280;8151;47.824;12.092;2023-05-24T03:11:39;96370.38;;;15.81;82.36
16094;BME280;8151;47.824;12.092;2023-05-24T03:14:08;96375.94;;;15.86;81.61
16094;BME280;8151;47.824;12.092;2023-05-24T03:16:37;96380.22;;;15.80;81.94
16094;BME280;8151;47.824;12.092;2023-05-24T03:19:06;96371.00;;;15.89;81.62
16094;BME280;8151;47.824;12.092;2023-05-24T03:21:36;96371.47;;;16.00;81.39
16094;BME280;8151;47.824;12.092;2023-05-24T03:24:05;96372.50;;;16.05;81.21
16094;BME280;8151;47.824;12.092;2023-05-24T03:26:36;96380.09;;;16.08;81.34
16094;BME280;8151;47.824;12.092;2023-05-24T03:29:05;96379.03;;;16.03;81.25
16094;BME280;8151;47.824;12.092;2023-05-24T03:31:36;96388.91;;;15.96;81.55
16094;BME280;8151;47.824;12.092;2023-05-24T03:34:06;96377.38;;;15.88;81.50
16094;BME280;8151;47.824;12.092;2023-05-24T03:36:37;96387.22;;;15.88;81.64
16094;BME280;8151;47.824;12.092;2023-05-24T03:39:05;96377.75;;;15.85;81.77
16094;BME280;8151;47.824;12.092;2023-05-24T03:41:36;96381.25;;;15.79;82.04
16094;BME280;8151;47.824;12.092;2023-05-24T03:44:04;96378.72;;;15.71;82.11
16094;BME280;8151;47.824;12.092;2023-05-24T03:46:33;96378.91;;;15.69;82.37
16094;BME280;8151;47.824;12.092;2023-05-24T03:49:02;96379.13;;;15.68;82.41
16094;BME280;8151;47.824;12.092;2023-05-24T03:51:30;96386.31;;;15.67;82.31
16094;BME280;8151;47.824;12.092;2023-05-24T03:53:59;96381.16;;;15.66;82.26
16094;BME280;8151;47.824;12.092;2023-05-24T03:56:27;96381.78;;;15.68;82.29
16094;BME280;8151;47.824;12.092;2023-05-24T03:58:57;96380.34;;;15.72;82.35
16094;BME280;8151;47.824;12.092;2023-05-24T04:01:30;96384.09;;;15.78;82.19
16094;BME280;8151;47.824;12.092;2023-05-24T04:04:01;96383.91;;;15.79;82.11
16094;BME280;8151;47.824;12.092;2023-05-24T04:06:29;96387.81;;;15.83;82.11
16094;BME280;8151;47.824;12.092;2023-05-24T04:08:59;96393.59;;;15.87;82.14
16094;BME280;8151;47.824;12.092;2023-05-24T04:11:28;96397.69;;;15.83;82.03
16094;BME280;8151;47.824;12.092;2023-05-24T04:13:59;96391.31;;;15.84;81.83
16094;BME280;8151;47.824;12.092;2023-05-24T04:16:28;96403.22;;;15.81;81.75
16094;BME280;8151;47.824;12.092;2023-05-24T04:19:00;96399.50;;;15.75;82.00
16094;BME280;8151;47.824;12.092;2023-05-24T04:21:30;96404.44;;;15.79;82.14
16094;BME280;8151;47.824;12.092;2023-05-24T04:23:59;96401.97;;;15.84;81.75
16094;BME280;8151;47.824;12.092;2023-05-24T04:26:29;96403.22;;;15.81;82.00
16094;BME280;8151;47.824;12.092;2023-05-24T04:29:01;96403.25;;;15.88;81.80
16094;BME280;8151;47.824;12.092;2023-05-24T04:31:29;96408.34;;;15.89;81.83
16094;BME280;8151;47.824;12.092;2023-05-24T04:33:59;96405.06;;;15.81;81.73
16094;BME280;8151;47.824;12.092;2023-05-24T04:36:28;96406.06;;;15.73;82.13
16094;BME280;8151;47.824;12.092;2023-05-24T04:38:57;96406.81;;;15.67;82.29
16094;BME280;8151;47.824;12.092;2023-05-24T04:41:30;96411.41;;;15.73;82.04
16094;BME280;8151;47.824;12.092;2023-05-24T04:44:02;96413.03;;;15.74;82.10
16094;BME280;8151;47.824;12.092;2023-05-24T04:46:35;96409.34;;;15.75;82.22
16094;BME280;8151;47.824;12.092;2023-05-24T04:49:03;96414.88;;;15.73;82.02
16094;BME280;8151;47.824;12.092;2023-05-24T04:51:34;96413.03;;;15.74;82.16
16094;BME280;8151;47.824;12.092;2023-05-24T04:54:05;96414.69;;;15.75;82.04
16094;BME280;8151;47.824;12.092;2023-05-24T04:56:37;96415.03;;;15.72;81.92
16094;BME280;8151;47.824;12.092;2023-05-24T04:59:07;96415.50;;;15.75;82.33
16094;BME280;8151;47.824;12.092;2023-05-24T05:01:36;96414.69;;;15.82;81.69
16094;BME280;8151;47.824;12.092;2023-05-24T05:04:06;96413.44;;;15.78;82.22
16094;BME280;8151;47.824;12.092;2023-05-24T05:06:34;96413.88;;;15.74;82.15
16094;BME280;8151;47.824;12.092;2023-05-24T05:09:05;96414.69;;;15.75;82.04
16094;BME280;8151;47.824;12.092;2023-05-24T05:11:36;96414.41;;;15.70;81.96
16094;BME280;8151;47.824;12.092;2023-05-24T05:14:04;96409.69;;;15.72;81.94
16094;BME280;8151;47.824;12.092;2023-05-24T05:16:38;96410.16;;;15.75;81.84
16094;BME280;8151;47.824;12.092;2023-05-24T05:19:07;96414.28;;;15.78;81.82
16094;BME280;8151;47.824;12.092;2023-05-24T05:21:36;96410.59;;;15.79;82.11
16094;BME280;8151;47.824;12.092;2023-05-24T05:24:05;96412.44;;;15.85;82.05
16094;BME280;8151;47.824;12.092;2023-05-24T05:26:34;96404.06;;;15.88;81.78
16094;BME280;8151;47.824;12.092;2023-05-24T05:29:02;96406.94;;;15.93;81.82
16094;BME280;8151;47.824;12.092;2023-05-24T05:31:31;96407.16;;;15.99;81.50
16094;BME280;8151;47.824;12.092;2023-05-24T05:34:01;96399.78;;;16.01;81.46
16094;BME280;8151;47.824;12.092;2023-05-24T05:36:29;96404.91;;;16.02;81.62
16094;BME280;8151;47.824;12.092;2023-05-24T05:38:58;96407.78;;;15.94;81.88
16094;BME280;8151;47.824;12.092;2023-05-24T05:41:26;96403.44;;;15.86;82.13
16094;BME280;8151;47.824;12.092;2023-05-24T05:43:55;96404.25;;;15.87;82.17
16094;BME280;8151;47.824;12.092;2023-05-24T05:46:23;96401.34;;;15.82;82.40
16094;BME280;8151;47.824;12.092;2023-05-24T05:48:52;96405.66;;;15.76;82.43
16094;BME280;8151;47.824;12.092;2023-05-24T05:51:21;96408.25;;;15.69;82.38
16094;BME280;8151;47.824;12.092;2023-05-24T05:53:50;96407.63;;;15.61;82.51
16094;BME280;8151;47.824;12.092;2023-05-24T05:56:20;96415.19;;;15.57;82.86
16094;BME280;8151;47.824;12.092;2023-05-24T05:58:49;96406.41;;;15.63;82.75
16094;BME280;8151;47.824;12.092;2023-05-24T06:01:17;96414.63;;;15.68;82.32
16094;BME280;8151;47.824;12.092;2023-05-24T06:03:46;96408.06;;;15.71;82.31
16094;BME280;8151;47.824;12.092;2023-05-24T06:06:14;96413.97;;;15.66;82.32
16094;BME280;8151;47.824;12.092;2023-05-24T06:08:44;96420.75;;;15.62;82.69
16094;BME280;8151;47.824;12.092;2023-05-24T06:11:12;96421.97;;;15.60;82.56
16094;BME280;8151;47.824;12.092;2023-05-24T06:13:41;96423.38;;;15.55;82.46
16094;BME280;8151;47.824;12.092;2023-05-24T06:16:10;96423.00;;;15.59;82.74
16094;BME280;8151;47.824;12.092;2023-05-24T06:18:40;96425.69;;;15.65;82.32
16094;BME280;8151;47.824;12.092;2023-05-24T06:21:23;96416.06;;;15.71;82.13
16094;BME280;8151;47.824;12.092;2023-05-24T06:23:54;96418.16;;;15.75;82.07
16094;BME280;8151;47.824;12.092;2023-05-24T06:26:24;96420.25;;;15.80;82.22
16094;BME280;8151;47.824;12.092;2023-05-24T06:28:53;96419.44;;;15.86;81.93
16094;BME280;8151;47.824;12.092;2023-05-24T06:31:22;96414.69;;;15.82;82.34
16094;BME280;8151;47.824;12.092;2023-05-24T06:33:50;96421.25;;;15.79;82.41
16094;BME280;8151;47.824;12.092;2023-05-24T06:36:30;96415.53;;;15.82;82.63
16094;BME280;8151;47.824;12.092;2023-05-24T06:39:01;96414.94;;;15.87;82.44
16094;BME280;8151;47.824;12.092;2023-05-24T06:41:32;96416.16;;;15.91;82.55
16094;BME280;8151;47.824;12.092;2023-05-24T06:44:01;96423.13;;;15.79;82.40
16094;BME280;8151;47.824;12.092;2023-05-24T06:46:29;96418.13;;;15.69;82.89
16094;BME280;8151;47.824;12.092;2023-05-24T06:48:59;96420.56;;;15.64;83.10
16094;BME280;8151;47.824;12.092;2023-05-24T06:51:27;96425.50;;;15.67;83.24
16094;BME280;8151;47.824;12.092;2023-05-24T06:53:56;96420.59;;;15.70;83.05
16094;BME280;8151;47.824;12.092;2023-05-24T06:56:26;96419.81;;;15.77;82.85
16094;BME280;8151;47.824;12.092;2023-05-24T06:58:55;96421.31;;;15.86;82.61
16094;BME280;8151;47.824;12.092;2023-05-24T07:01:23;96419.03;;;15.89;82.29
16094;BME280;8151;47.824;12.092;2023-05-24T07:03:52;96417.78;;;15.85;82.57
16094;BME280;8151;47.824;12.092;2023-05-24T07:06:20;96424.59;;;15.88;82.54
16094;BME280;8151;47.824;12.092;2023-05-24T07:08:55;96422.94;;;15.93;82.01
16094;BME280;8151;47.824;12.092;2023-05-24T07:11:23;96422.94;;;15.93;82.45
16094;BME280;8151;47.824;12.092;2023-05-24T07:13:55;96420.06;;;15.95;82.41
16094;BME280;8151;47.824;12.092;2023-05-24T07:16:24;96416.19;;;15.98;82.32
16094;BME280;8151;47.824;12.092;2023-05-24T07:18:54;96416.41;;;16.03;82.10
16094;BME280;8151;47.824;12.092;2023-05-24T07:21:23;96410.69;;;16.06;82.06
16094;BME280;8151;47.824;12.092;2023-05-24T07:23:51;96410.69;;;16.06;81.79
16094;BME280;8151;47.824;12.092;2023-05-24T07:26:20;96413.78;;;16.09;81.87
16094;BME280;8151;47.824;12.092;2023-05-24T07:28:49;96421.34;;;16.12;82.12
16094;BME280;8151;47.824;12.092;2023-05-24T07:31:19;96416.22;;;16.11;81.83
16094;BME280;8151;47.824;12.092;2023-05-24T07:33:48;96421.78;;;16.09;81.80
16094;BME280;8151;47.824;12.092;2023-05-24T07:36:17;96417.25;;;16.10;81.95
16094;BME280;8151;47.824;12.092;2023-05-24T07:38:45;96418.88;;;16.11;81.82
16094;BME280;8151;47.824;12.092;2023-05-24T07:41:14;96422.19;;;16.13;81.72
16094;BME280;8151;47.824;12.092;2023-05-24T07:43:43;96423.22;;;16.12;81.83
16094;BME280;8151;47.824;12.092;2023-05-24T07:46:11;96419.31;;;16.14;81.80
16094;BME280;8151;47.824;12.092;2023-05-24T07:48:41;96419.09;;;16.09;81.89
16094;BME280;8151;47.824;12.092;2023-05-24T07:51:13;96419.69;;;16.05;82.20
16094;BME280;8151;47.824;12.092;2023-05-24T07:53:41;96426.50;;;16.07;82.19
16094;BME280;8151;47.824;12.092;2023-05-24T07:56:11;96426.28;;;16.09;82.17
16094;BME280;8151;47.824;12.092;2023-05-24T07:58:41;96419.50;;;16.06;82.13
16094;BME280;8151;47.824;12.092;2023-05-24T08:01:13;96418.06;;;16.04;82.21
16094;BME280;8151;47.824;12.092;2023-05-24T08:03:43;96415.59;;;16.02;82.27
16094;BME280;8151;47.824;12.092;2023-05-24T08:06:12;96417.63;;;16.07;82.03
16094;BME280;8151;47.824;12.092;2023-05-24T08:08:40;96425.06;;;16.11;81.95
16094;BME280;8151;47.824;12.092;2023-05-24T08:11:09;96423.00;;;16.13;81.95
16094;BME280;8151;47.824;12.092;2023-05-24T08:13:40;96420.97;;;16.16;81.79
16094;BME280;8151;47.824;12.092;2023-05-24T08:16:08;96426.91;;;16.18;82.01
16094;BME280;8151;47.824;12.092;2023-05-24T08:18:39;96431.03;;;16.20;82.04
16094;BME280;8151;47.824;12.092;2023-05-24T08:21:13;96419.34;;;16.21;81.84
16094;BME280;8151;47.824;12.092;2023-05-24T08:23:42;96417.28;;;16.23;81.95
16094;BME280;8151;47.824;12.092;2023-05-24T08:26:12;96417.91;;;16.25;81.81
16094;BME280;8151;47.824;12.092;2023-05-24T08:28:42;96418.13;;;16.30;81.85
16094;BME280;8151;47.824;12.092;2023-05-24T08:31:12;96415.66;;;16.36;81.89
16094;BME280;8151;47.824;12.092;2023-05-24T08:33:41;96423.28;;;16.39;81.84
16094;BME280;8151;47.824;12.092;2023-05-24T08:36:14;96416.28;;;16.44;82.06
16094;BME280;8151;47.824;12.092;2023-05-24T08:38:42;96414.66;;;16.50;82.00
16094;BME280;8151;47.824;12.092;2023-05-24T08:41:12;96413.03;;;16.56;81.96
16094;BME280;8151;47.824;12.092;2023-05-24T08:43:41;96411.59;;;16.60;81.99
16094;BME280;8151;47.824;12.092;2023-05-24T08:46:13;96416.94;;;16.60;82.05
16094;BME280;8151;47.824;12.092;2023-05-24T08:48:45;96414.03;;;16.54;82.55
16094;BME280;8151;47.824;12.092;2023-05-24T08:51:16;96415.28;;;16.52;82.33
16094;BME280;8151;47.824;12.092;2023-05-24T08:53:45;96418.56;;;16.54;82.38
16094;BME280;8151;47.824;12.092;2023-05-24T08:56:16;96418.56;;;16.54;82.11
16094;BME280;8151;47.824;12.092;2023-05-24T08:58:45;96416.09;;;16.52;82.08
16094;BME280;8151;47.824;12.092;2023-05-24T09:01:15;96409.69;;;16.53;81.85
16094;BME280;8151;47.824;12.092;2023-05-24T09:03:45;96415.91;;;16.54;82.09
16094;BME280;8151;47.824;12.092;2023-05-24T09:06:17;96419.56;;;16.53;81.97
16094;BME280;8151;47.824;12.092;2023-05-24T09:08:46;96420.81;;;16.50;81.79
16094;BME280;8151;47.824;12.092;2023-05-24T09:11:19;96416.47;;;16.49;82.06
16094;BME280;8151;47.824;12.092;2023-05-24T09:13:52;96422.66;;;16.50;82.00
16094;BME280;8151;47.824;12.092;2023-05-24T09:16:24;96423.28;;;16.52;82.21
16094;BME280;8151;47.824;12.092;2023-05-24T09:18:53;96435.22;;;16.56;81.91
16094;BME280;8151;47.824;12.092;2023-05-24T09:21:24;96426.16;;;16.57;82.02
16094;BME280;8151;47.824;12.092;2023-05-24T09:23:52;96432.09;;;16.59;81.87
16094;BME280;8151;47.824;12.092;2023-05-24T09:26:21;96430.06;;;16.61;81.75
16094;BME280;8151;47.824;12.092;2023-05-24T09:28:53;96424.31;;;16.64;81.88
16094;BME280;8151;47.824;12.092;2023-05-24T09:31:31;96425.31;;;16.63;81.68
16094;BME280;8151;47.824;12.092;2023-05-24T09:34:00;96424.31;;;16.64;81.72
16094;BME280;8151;47.824;12.092;2023-05-24T09:36:31;96425.13;;;16.65;81.71
16094;BME280;8151;47.824;12.092;2023-05-24T09:39:06;96425.97;;;16.65;81.81
16094;BME280;8151;47.824;12.092;2023-05-24T09:41:36;96422.66;;;16.63;81.60
16094;BME280;8151;47.824;12.092;2023-05-24T09:44:05;96422.66;;;16.63;81.85
16094;BME280;8151;47.824;12.092;2023-05-24T09:46:34;96432.72;;;16.61;81.44
16094;BME280;8151;47.824;12.092;2023-05-24T09:49:04;96426.75;;;16.46;81.61
16094;BME280;8151;47.824;12.092;2023-05-24T09:51:37;96429.81;;;16.29;81.87
16094;BME280;8151;47.824;12.092;2023-05-24T09:54:06;96440.03;;;16.12;82.31
16094;BME280;8151;47.824;12.092;2023-05-24T09:56:38;96441.09;;;16.11;82.71
16094;BME280;8151;47.824;12.092;2023-05-24T09:59:07;96431.59;;;16.09;82.68
16094;BME280;8151;47.824;12.092;2023-05-24T10:01:36;96448.22;;;15.98;82.75
16094;BME280;8151;47.824;12.092;2023-05-24T10:04:04;96443.41;;;15.80;83.26
16094;BME280;8151;47.824;12.092;2023-05-24T10:06:39;96443.13;;;15.68;83.91
16094;BME280;8151;47.824;12.092;2023-05-24T10:09:09;96441.69;;;15.65;83.82
16094;BME280;8151;47.824;12.092;2023-05-24T10:11:40;96453.34;;;15.58;84.11
16094;BME280;8151;47.824;12.092;2023-05-24T10:14:09;96453.09;;;15.52;84.30
16094;BME280;8151;47.824;12.092;2023-05-24T10:16:38;96457.69;;;15.59;84.15
16094;BME280;8151;47.824;12.092;2023-05-24T10:19:06;96453.53;;;15.49;84.28
16094;BME280;8151;47.824;12.092;2023-05-24T10:21:35;96449.59;;;15.45;84.91
16094;BME280;8151;47.824;12.092;2023-05-24T10:24:10;96448.56;;;15.46;84.79
16094;BME280;8151;47.824;12.092;2023-05-24T10:26:40;96460.84;;;15.41;84.96
16094;BME280;8151;47.824;12.092;2023-05-24T10:29:16;96453.47;;;15.43;84.93
16094;BME280;8151;47.824;12.092;2023-05-24T10:31:50;96453.28;;;15.44;85.09
16094;BME280;8151;47.824;12.092;2023-05-24T10:34:20;96457.97;;;15.35;85.45
16094;BME280;8151;47.824;12.092;2023-05-24T10:36:49;96456.69;;;15.31;85.64
16094;BME280;8151;47.824;12.092;2023-05-24T10:39:21;96460.56;;;15.29;85.94
16094;BME280;8151;47.824;12.092;2023-05-24T10:41:50;96459.16;;;15.33;85.55
16094;BME280;8151;47.824;12.092;2023-05-24T10:44:18;96462.41;;;15.28;86.08
16094;BME280;8151;47.824;12.092;2023-05-24T10:47:07;96457.44;;;15.19;86.05
16094;BME280;8151;47.824;12.092;2023-05-24T10:49:37;96458.22;;;15.12;86.25
16094;BME280;8151;47.824;12.092;2023-05-24T10:52:07;96457.00;;;15.15;86.38
16094;BME280;8151;47.824;12.092;2023-05-24T10:54:38;96455.19;;;15.22;86.47
16094;BME280;8151;47.824;12.092;2023-05-24T10:57:22;96458.06;;;15.21;86.39
16094;BME280;8151;47.824;12.092;2023-05-24T10:59:51;96454.69;;;15.12;86.52
16094;BME280;8151;47.824;12.092;2023-05-24T11:02:20;96460.25;;;15.10;87.15
16094;BME280;8151;47.824;12.092;2023-05-24T11:04:49;96465.19;;;15.13;87.05
16094;BME280;8151;47.824;12.092;2023-05-24T11:07:18;96459.84;;;15.13;87.28
16094;BME280;8151;47.824;12.092;2023-05-24T11:09:48;96455.75;;;15.11;87.45
16094;BME280;8151;47.824;12.092;2023-05-24T11:12:29;96456.56;;;15.11;87.25
16094;BME280;8151;47.824;12.092;2023-05-24T11:15:00;96458.25;;;15.19;87.46
16094;BME280;8151;47.824;12.092;2023-05-24T11:18:12;96455.00;;;15.24;87.02
16094;BME280;8151;47.824;12.092;2023-05-24T11:20:43;96457.63;;;15.17;87.13
16094;BME280;8151;47.824;12.092;2023-05-24T11:23:14;96451.22;;;15.11;87.18
16094;BME280;8151;47.824;12.092;2023-05-24T11:25:45;96448.56;;;15.11;87.23
16094;BME280;8151;47.824;12.092;2023-05-24T11:28:15;96456.56;;;15.11;87.58
16094;BME280;8151;47.824;12.092;2023-05-24T11:30:45;96449.53;;;15.04;87.87
16094;BME280;8151;47.824;12.092;2023-05-24T11:33:15;96453.88;;;15.11;87.90
16094;BME280;8151;47.824;12.092;2023-05-24T11:35:45;96454.94;;;15.17;87.89
16094;BME280;8151;47.824;12.092;2023-05-24T11:38:15;96450.88;;;15.21;88.04
16094;BME280;8151;47.824;12.092;2023-05-24T11:40:46;96452.00;;;15.33;87.65
16094;BME280;8151;47.824;12.092;2023-05-24T11:43:16;96441.19;;;15.48;87.41
16094;BME280;8151;47.824;12.092;2023-05-24T11:45:48;96450.44;;;15.52;87.53
16094;BME280;8151;47.824;12.092;2023-05-24T11:48:18;96455.75;;;15.46;87.79
16094;BME280;8151;47.824;12.092;2023-05-24T11:50:47;96454.94;;;15.45;88.09
16094;BME280;8151;47.824;12.092;2023-05-24T11:53:18;96456.34;;;15.41;88.23
16094;BME280;8151;47.824;12.092;2023-05-24T11:55:48;96460.19;;;15.32;88.62
16094;BME280;8151;47.824;12.092;2023-05-24T11:58:22;96459.31;;;15.25;88.65
16094;BME280;8151;47.824;12.092;2023-05-24T12:00:51;96455.34;;;15.14;88.85
16094;BME280;8151;47.824;12.092;2023-05-24T12:03:20;96454.84;;;15.04;88.87
16094;BME280;8151;47.824;12.092;2023-05-24T12:05:48;96456.44;;;14.98;88.69
16094;BME280;8151;47.824;12.092;2023-05-24T12:08:17;96453.84;;;15.05;88.82
16094;BME280;8151;47.824;12.092;2023-05-24T12:10:48;96460.25;;;15.10;88.43
16094;BME280;8151;47.824;12.092;2023-05-24T12:13:19;96463.53;;;15.12;88.21
16094;BME280;8151;47.824;12.092;2023-05-24T12:15:50;96468.47;;;15.15;87.85
16094;BME280;8151;47.824;12.092;2023-05-24T12:18:23;96460.72;;;15.21;87.81
16094;BME280;8151;47.824;12.092;2023-05-24T12:20:53;96469.53;;;15.21;87.60
16094;BME280;8151;47.824;12.092;2023-05-24T12:23:24;96464.84;;;15.23;87.37
16094;BME280;8151;47.824;12.092;2023-05-24T12:25:58;96469.38;;;15.29;87.49
16094;BME280;8151;47.824;12.092;2023-05-24T12:28:31;96472.91;;;15.36;87.37
16094;BME280;8151;47.824;12.092;2023-05-24T12:31:02;96475.00;;;15.41;87.14
16094;BME280;8151;47.824;12.092;2023-05-24T12:33:31;96470.94;;;15.45;87.14
16094;BME280;8151;47.824;12.092;2023-05-24T12:36:00;96475.22;;;15.46;86.87
16094;BME280;8151;47.824;12.092;2023-05-24T12:38:30;96471.34;;;15.49;87.00
16094;BME280;8151;47.824;12.092;2023-05-24T12:41:00;96477.34;;;15.58;87.28
16094;BME280;8151;47.824;12.092;2023-05-24T12:43:31;96476.00;;;15.68;86.72
16094;BME280;8151;47.824;12.092;2023-05-24T12:46:00;96481.00;;;15.78;86.55
16094;BME280;8151;47.824;12.092;2023-05-24T12:48:29;96484.09;;;15.88;86.27
16094;BME280;8151;47.824;12.092;2023-05-24T12:50:58;96479.63;;;15.96;86.08
16094;BME280;8151;47.824;12.092;2023-05-24T12:53:26;96481.66;;;15.93;85.70
16094;BME280;8151;47.824;12.092;2023-05-24T12:55:55;96481.66;;;15.93;86.13
16094;BME280;8151;47.824;12.092;2023-05-24T12:58:25;96477.59;;;15.98;85.96
16094;BME280;8151;47.824;12.092;2023-05-24T13:00:54;96487.03;;;16.00;85.82
16094;BME280;8151;47.824;12.092;2023-05-24T13:03:23;96484.56;;;15.99;85.72
16094;BME280;8151;47.824;12.092;2023-05-24T13:05:51;96475.91;;;15.97;85.46
16094;BME280;8151;47.824;12.092;2023-05-24T13:08:20;96484.72;;;15.90;85.80
16094;BME280;8151;47.824;12.092;2023-05-24T13:10:49;96486.94;;;15.80;85.83
16094;BME280;8151;47.824;12.092;2023-05-24T13:13:17;96489.38;;;15.75;85.99
16094;BME280;8151;47.824;12.092;2023-05-24T13:15:47;96488.38;;;15.76;86.15